Weather at Asturias Airport

Public forecast

Using degrees Celsius for public forecast. Weather courtesy of forecast.io.

Current aviation weather report (METAR) for Asturias Airport

Retrieved 2020/11/30 00:30 UTC (23 minutes ago):

LEAS 300030Z AUTO 24003KT 190V280 9999 SCT011 09/08 Q1021

Aviation forecast (TAF) for Asturias Airport

Retrieved 2020/11/29 21:27 UTC (3 hours ago):

TAF LEAS 292000Z 2921/3021 15004KT 8000 NSC TX16/3013Z TN07/3005Z TEMPO 3002/3021 3000 BR BKN010 PROB40 TEMPO 3002/3009 0800 FG BKN001 PROB40 TEMPO 3011/3018 07010KT